Time;durP1;ratioP1;P1;durP2;ratioP2;P2;SDS_P1;SDS_P2;PMS_P1;PMS_P2;Temp;Humidity;BMP_temperature;BMP_pressure;BME280_temperature;BME280_humidity;BME280_pressure;Samples;Min_cycle;Max_cycle;Signal;HPM_P1;HPM_P2
2022/07/31 00:01:08;;;;;;;7.20;6.33;;;19.10;99.90;;;;;;4975551;28;20479;-64
2022/07/31 00:03:34;;;;;;;6.00;5.60;;;19.00;99.90;;;;;;4978926;28;20494;-63
2022/07/31 00:05:59;;;;;;;7.10;6.47;;;19.00;99.90;;;;;;4978810;28;20287;-64
2022/07/31 00:08:25;;;;;;;6.23;5.60;;;19.00;99.90;;;;;;4977330;28;20192;-64
2022/07/31 00:10:50;;;;;;;5.30;4.90;;;19.00;99.90;;;;;;4979060;28;20187;-63
2022/07/31 00:13:16;;;;;;;5.00;4.60;;;19.10;99.90;;;;;;4972343;28;20582;-64
2022/07/31 00:15:41;;;;;;;5.77;5.37;;;19.00;99.90;;;;;;4968814;28;20199;-63
2022/07/31 00:18:07;;;;;;;6.03;5.53;;;19.10;99.90;;;;;;4977710;28;20184;-63
2022/07/31 00:20:34;;;;;;;5.20;4.80;;;19.10;99.90;;;;;;4970317;28;20172;-64
2022/07/31 00:23:00;;;;;;;5.50;5.20;;;19.00;99.90;;;;;;4972681;28;20678;-63
2022/07/31 00:25:25;;;;;;;5.27;4.90;;;19.00;99.90;;;;;;4972036;28;20444;-63
2022/07/31 00:27:51;;;;;;;5.50;5.07;;;18.90;99.90;;;;;;4970373;28;20180;-64
2022/07/31 00:30:16;;;;;;;5.00;4.60;;;19.00;99.90;;;;;;4971218;28;20327;-63
2022/07/31 00:32:42;;;;;;;5.63;5.13;;;19.00;99.90;;;;;;4972036;28;20560;-64
2022/07/31 00:35:12;;;;;;;6.33;5.27;;;19.00;99.90;;;;;;4973145;28;20187;-64
2022/07/31 00:37:39;;;;;;;5.67;5.27;;;19.00;99.90;;;;;;4970654;28;20447;-64
2022/07/31 00:40:06;;;;;;;5.07;4.57;;;19.00;99.90;;;;;;4971604;28;20482;-64
2022/07/31 00:42:32;;;;;;;6.00;5.03;;;18.90;99.90;;;;;;4967124;28;20530;-64
2022/07/31 00:44:57;;;;;;;6.10;5.70;;;19.00;99.90;;;;;;4972081;28;20919;-64
2022/07/31 00:47:23;;;;;;;6.03;5.47;;;19.00;99.90;;;;;;4971628;28;20176;-64
2022/07/31 00:49:48;;;;;;;5.37;4.97;;;19.00;99.90;;;;;;4970063;28;20222;-64
2022/07/31 00:52:14;;;;;;;5.87;5.40;;;19.00;99.90;;;;;;4972402;28;20649;-64
2022/07/31 00:54:39;;;;;;;6.30;5.30;;;19.00;99.90;;;;;;4970752;28;20275;-63
2022/07/31 00:57:05;;;;;;;6.63;6.10;;;19.00;99.90;;;;;;4970809;28;20188;-64
2022/07/31 00:59:31;;;;;;;6.00;5.60;;;19.00;99.90;;;;;;4953498;28;20208;-64
2022/07/31 01:01:58;;;;;;;6.10;5.50;;;19.00;99.90;;;;;;4969783;28;20181;-64
2022/07/31 01:04:25;;;;;;;6.40;5.80;;;19.00;99.90;;;;;;4970408;28;20255;-64
2022/07/31 01:06:51;;;;;;;6.47;5.97;;;18.80;99.90;;;;;;4969757;28;20443;-64
2022/07/31 01:09:16;;;;;;;7.53;5.90;;;18.60;99.90;;;;;;4974291;28;20481;-64
2022/07/31 01:11:50;;;;;;;6.10;5.70;;;18.60;99.90;;;;;;4978097;28;20438;-64
2022/07/31 01:14:18;;;;;;;6.27;5.67;;;18.60;99.90;;;;;;4976797;28;20202;-64
2022/07/31 01:16:47;;;;;;;7.23;6.63;;;18.60;99.90;;;;;;4975629;28;20440;-64
2022/07/31 01:19:31;;;;;;;7.17;6.10;;;18.60;99.90;;;;;;4967412;28;20573;-64
2022/07/31 01:22:09;;;;;;;8.10;7.20;;;18.60;99.90;;;;;;4968525;28;20432;-64
2022/07/31 01:25:05;;;;;;;6.60;6.20;;;18.60;99.90;;;;;;4970056;28;20903;-64
2022/07/31 01:27:47;;;;;;;6.73;6.30;;;18.60;99.90;;;;;;4971912;28;20534;-64
2022/07/31 01:30:13;;;;;;;6.30;5.80;;;18.50;99.90;;;;;;4969453;28;20436;-64
2022/07/31 01:32:45;;;;;;;6.40;6.00;;;18.40;99.90;;;;;;4970220;28;20814;-64
2022/07/31 01:35:15;;;;;;;6.10;5.70;;;18.40;99.90;;;;;;4973259;28;20188;-63
2022/07/31 01:37:52;;;;;;;5.83;5.33;;;18.40;99.90;;;;;;4968534;28;20534;-63
2022/07/31 01:40:28;;;;;;;8.53;6.00;;;18.40;99.90;;;;;;4969375;28;20490;-63
2022/07/31 01:43:03;;;;;;;5.30;5.00;;;18.40;99.90;;;;;;4969344;28;20969;-64
2022/07/31 01:45:30;;;;;;;6.30;5.70;;;18.30;99.90;;;;;;4969488;28;20427;-64
2022/07/31 01:47:57;;;;;;;6.13;5.53;;;18.20;99.90;;;;;;4969930;28;20792;-64
2022/07/31 01:50:23;;;;;;;5.70;5.20;;;18.10;99.90;;;;;;4970721;28;20438;-63
2022/07/31 01:52:50;;;;;;;5.93;5.30;;;18.10;99.90;;;;;;4968384;28;20470;-64
2022/07/31 01:55:17;;;;;;;4.80;4.50;;;18.10;99.90;;;;;;4969647;28;20463;-64
2022/07/31 01:57:44;;;;;;;6.60;6.00;;;18.10;99.90;;;;;;4967785;28;20431;-64
2022/07/31 02:00:11;;;;;;;5.90;5.40;;;18.00;99.90;;;;;;4968318;28;20487;-64
2022/07/31 02:02:38;;;;;;;6.63;6.13;;;18.00;99.90;;;;;;4974353;28;20522;-64
2022/07/31 02:05:06;;;;;;;6.03;5.63;;;18.00;99.90;;;;;;4952641;28;20432;-64
2022/07/31 02:07:40;;;;;;;5.87;5.47;;;18.00;99.90;;;;;;4967431;28;21036;-64
2022/07/31 02:10:08;;;;;;;6.20;5.80;;;17.90;99.90;;;;;;4968735;28;20454;-64
2022/07/31 02:12:36;;;;;;;5.80;5.30;;;17.80;99.90;;;;;;4974435;28;20982;-63
2022/07/31 02:15:05;;;;;;;5.47;5.07;;;17.70;99.90;;;;;;4984625;28;20952;-63
2022/07/31 02:17:32;;;;;;;7.20;5.57;;;17.70;99.90;;;;;;4969375;28;20480;-63
2022/07/31 02:20:00;;;;;;;6.83;6.20;;;17.60;99.90;;;;;;4965228;28;20977;-64
2022/07/31 02:22:26;;;;;;;6.27;5.67;;;17.70;99.90;;;;;;4968625;28;20973;-64
2022/07/31 02:24:51;;;;;;;5.73;5.23;;;17.70;99.90;;;;;;4970856;28;20518;-64
2022/07/31 02:27:17;;;;;;;5.17;4.83;;;17.70;99.90;;;;;;4970310;28;20207;-64
2022/07/31 02:29:44;;;;;;;6.30;5.90;;;17.60;99.90;;;;;;4969102;28;20215;-64
2022/07/31 02:32:13;;;;;;;6.10;5.60;;;17.60;99.90;;;;;;4970584;28;20184;-64
2022/07/31 02:34:39;;;;;;;5.93;5.50;;;17.60;99.90;;;;;;4975694;28;20470;-63
2022/07/31 02:37:06;;;;;;;7.00;6.40;;;17.50;99.90;;;;;;4973203;28;20435;-63
2022/07/31 02:39:33;;;;;;;7.27;6.77;;;17.50;99.90;;;;;;4973607;28;20467;-63
2022/07/31 02:42:00;;;;;;;6.73;6.23;;;17.50;99.90;;;;;;4973563;28;20443;-63
2022/07/31 02:44:27;;;;;;;6.63;6.07;;;17.50;99.90;;;;;;4975358;28;20532;-63
2022/07/31 02:46:54;;;;;;;7.43;6.70;;;17.40;99.90;;;;;;4974159;28;21028;-63
2022/07/31 02:49:20;;;;;;;8.10;7.33;;;17.50;99.90;;;;;;4955431;28;20497;-63
2022/07/31 02:51:45;;;;;;;7.40;6.80;;;17.50;99.90;;;;;;4972030;28;20577;-63
2022/07/31 02:54:11;;;;;;;8.03;7.43;;;17.40;99.90;;;;;;4975377;28;20208;-63
2022/07/31 02:56:37;;;;;;;9.17;8.47;;;17.40;99.90;;;;;;4974566;28;20242;-63
2022/07/31 02:59:03;;;;;;;7.80;7.20;;;17.30;99.90;;;;;;4975254;28;20208;-64
2022/07/31 03:01:33;;;;;;;6.57;6.07;;;17.30;99.90;;;;;;4968889;28;20597;-64
2022/07/31 03:03:59;;;;;;;6.37;5.80;;;17.30;99.90;;;;;;4972718;28;20332;-64
2022/07/31 03:06:24;;;;;;;7.30;6.80;;;17.20;99.90;;;;;;4975292;28;20476;-63
2022/07/31 03:08:50;;;;;;;6.83;6.13;;;17.30;99.90;;;;;;4973910;28;20266;-63
2022/07/31 03:11:16;;;;;;;6.77;6.27;;;17.20;99.90;;;;;;4975162;28;20569;-63
2022/07/31 03:13:42;;;;;;;6.43;6.03;;;17.20;99.90;;;;;;4975144;28;20208;-63
2022/07/31 03:16:10;;;;;;;5.87;5.47;;;17.20;99.90;;;;;;4975134;28;20446;-64
2022/07/31 03:18:37;;;;;;;7.40;6.90;;;17.10;99.90;;;;;;4956920;28;21003;-64
2022/07/31 03:21:03;;;;;;;8.63;5.90;;;17.20;99.90;;;;;;4975117;28;20510;-63
2022/07/31 03:23:35;;;;;;;6.70;6.07;;;17.20;99.90;;;;;;4973708;28;20455;-64
2022/07/31 03:26:02;;;;;;;10.70;6.13;;;17.10;99.90;;;;;;4975183;28;20435;-63
2022/07/31 03:28:27;;;;;;;7.03;6.53;;;17.10;99.90;;;;;;4974173;28;20474;-63
2022/07/31 03:30:54;;;;;;;6.57;6.23;;;17.00;99.90;;;;;;4969424;28;20444;-64
2022/07/31 03:35:51;;;;;;;6.87;6.43;;;17.00;99.90;;;;;;5009057;28;20478;-54
2022/07/31 03:38:17;;;;;;;7.67;6.67;;;16.70;99.90;;;;;;5008060;28;20491;-59
2022/07/31 03:40:43;;;;;;;7.03;6.53;;;16.70;99.90;;;;;;5012033;28;20843;-56
2022/07/31 03:43:08;;;;;;;6.97;6.40;;;16.60;99.90;;;;;;5011049;28;20186;-54
2022/07/31 03:45:36;;;;;;;6.23;5.73;;;16.60;99.90;;;;;;5031055;28;20215;-56
2022/07/31 03:48:02;;;;;;;6.33;5.90;;;16.70;99.90;;;;;;5031257;28;20178;-58
2022/07/31 03:50:28;;;;;;;7.27;6.77;;;16.80;99.90;;;;;;5029348;28;20442;-59
2022/07/31 03:52:55;;;;;;;6.60;6.10;;;16.90;99.90;;;;;;5030487;28;20197;-55
2022/07/31 03:55:21;;;;;;;7.70;6.67;;;16.90;99.90;;;;;;5030321;28;20522;-56
2022/07/31 03:57:48;;;;;;;7.43;6.13;;;17.00;99.90;;;;;;5022790;28;20438;-60
2022/07/31 04:00:14;;;;;;;6.70;6.20;;;17.00;99.90;;;;;;5030867;28;20251;-59
2022/07/31 04:02:40;;;;;;;7.13;6.60;;;17.00;99.90;;;;;;5032577;28;20941;-58
2022/07/31 04:05:06;;;;;;;6.43;5.90;;;17.00;99.90;;;;;;5024010;28;20452;-59
2022/07/31 04:07:32;;;;;;;7.60;7.10;;;17.00;99.90;;;;;;5032692;28;20185;-58
2022/07/31 04:09:57;;;;;;;6.70;6.30;;;17.00;99.90;;;;;;5030914;28;20436;-57
2022/07/31 04:12:23;;;;;;;8.20;6.70;;;17.00;99.90;;;;;;5024060;28;20186;-54
2022/07/31 04:14:48;;;;;;;6.63;6.23;;;16.90;99.90;;;;;;5032342;28;20209;-55
2022/07/31 04:17:14;;;;;;;8.80;7.40;;;16.80;99.90;;;;;;5028203;28;20653;-58
2022/07/31 04:19:40;;;;;;;8.27;6.80;;;16.70;99.90;;;;;;5024622;28;20210;-57
2022/07/31 04:22:06;;;;;;;7.03;6.53;;;16.80;99.90;;;;;;5028648;28;20210;-58
2022/07/31 04:24:31;;;;;;;7.03;6.53;;;16.90;99.90;;;;;;5032824;28;20671;-61
2022/07/31 04:26:57;;;;;;;6.03;5.53;;;17.00;99.90;;;;;;5027507;28;20459;-59
2022/07/31 04:29:23;;;;;;;6.83;6.33;;;17.10;99.90;;;;;;5030981;28;20303;-59
2022/07/31 04:31:49;;;;;;;7.10;6.53;;;17.20;99.90;;;;;;5029258;28;20556;-59
2022/07/31 04:34:15;;;;;;;7.43;6.83;;;17.20;99.90;;;;;;5028922;28;20472;-58
2022/07/31 04:36:40;;;;;;;9.70;9.00;;;17.20;99.90;;;;;;5027173;28;20182;-57
2022/07/31 04:39:06;;;;;;;8.63;8.00;;;17.20;99.90;;;;;;5030884;28;20255;-59
2022/07/31 04:41:31;;;;;;;7.50;6.93;;;17.50;99.90;;;;;;5030023;28;20179;-58
2022/07/31 04:43:58;;;;;;;7.30;6.60;;;17.40;99.90;;;;;;5032984;28;20663;-59
2022/07/31 04:46:24;;;;;;;5.97;5.47;;;17.50;99.90;;;;;;5026403;28;20762;-57
2022/07/31 04:48:49;;;;;;;7.33;6.73;;;17.60;99.90;;;;;;5025362;28;20515;-57
2022/07/31 04:51:19;;;;;;;6.00;5.63;;;17.90;99.90;;;;;;5031948;28;20819;-59
2022/07/31 04:53:45;;;;;;;6.60;6.10;;;18.10;99.90;;;;;;5031434;28;20257;-59
2022/07/31 04:58:55;;;;;;;6.13;5.63;;;18.40;99.90;;;;;;5029885;28;20611;-57
2022/07/31 05:01:21;;;;;;;7.30;6.57;;;18.70;99.90;;;;;;5029744;28;20528;-53
2022/07/31 05:03:46;;;;;;;7.13;5.77;;;18.80;99.90;;;;;;5031342;28;20202;-60
2022/07/31 05:06:12;;;;;;;6.33;5.90;;;18.90;99.90;;;;;;5027232;28;20187;-59
2022/07/31 05:08:38;;;;;;;5.87;5.53;;;19.00;99.90;;;;;;5029158;28;20555;-57
2022/07/31 05:11:23;;;;;;;6.50;6.10;;;19.00;99.90;;;;;;5029350;28;20564;-58
2022/07/31 05:13:53;;;;;;;6.73;6.23;;;19.10;99.90;;;;;;5019762;28;20452;-58
2022/07/31 05:16:19;;;;;;;7.57;6.97;;;19.00;99.90;;;;;;5028751;28;20490;-58
2022/07/31 05:18:45;;;;;;;6.83;6.23;;;19.00;99.90;;;;;;5030748;28;20461;-57
2022/07/31 05:21:12;;;;;;;6.07;5.47;;;19.30;99.90;;;;;;5030276;28;20433;-59
2022/07/31 05:23:39;;;;;;;6.10;5.70;;;19.60;99.90;;;;;;5030559;28;20530;-55
2022/07/31 05:26:05;;;;;;;7.00;6.43;;;19.60;99.90;;;;;;5024020;28;20465;-58
2022/07/31 05:28:30;;;;;;;6.30;5.80;;;19.70;99.90;;;;;;5024499;28;20452;-53
2022/07/31 05:30:56;;;;;;;7.20;5.40;;;19.70;99.90;;;;;;5027286;28;20182;-57
2022/07/31 05:33:22;;;;;;;5.67;5.23;;;19.70;99.90;;;;;;5031130;28;20174;-58
2022/07/31 05:35:47;;;;;;;5.53;5.03;;;20.00;99.90;;;;;;5032248;28;20226;-60
2022/07/31 05:38:13;;;;;;;6.47;5.90;;;19.90;99.90;;;;;;5023585;28;20274;-60
2022/07/31 05:40:38;;;;;;;6.37;5.80;;;20.00;99.90;;;;;;5023597;28;20208;-57
2022/07/31 05:43:04;;;;;;;7.00;6.50;;;20.00;99.90;;;;;;5038545;28;20541;-56
2022/07/31 05:45:29;;;;;;;9.40;6.90;;;20.10;99.90;;;;;;5041703;28;20187;-58
2022/07/31 05:47:55;;;;;;;9.13;8.40;;;20.20;99.90;;;;;;5024000;28;20206;-57
2022/07/31 05:50:20;;;;;;;7.40;6.80;;;20.30;99.90;;;;;;5011711;28;20170;-57
2022/07/31 05:52:48;;;;;;;7.20;6.53;;;20.50;99.90;;;;;;5012379;28;20182;-58
2022/07/31 05:55:14;;;;;;;9.20;6.87;;;20.60;99.90;;;;;;5012212;28;20206;-58
2022/07/31 05:57:39;;;;;;;6.47;5.97;;;20.60;99.90;;;;;;5022356;28;20782;-59
2022/07/31 06:00:05;;;;;;;11.13;10.07;;;20.70;99.90;;;;;;5030520;28;20198;-57
2022/07/31 06:02:31;;;;;;;8.00;7.33;;;20.80;99.90;;;;;;5021719;28;20167;-56
2022/07/31 06:04:56;;;;;;;7.80;7.03;;;21.00;99.90;;;;;;5023554;28;20491;-55
2022/07/31 06:07:22;;;;;;;7.40;6.80;;;21.10;99.90;;;;;;5015968;28;20547;-57
2022/07/31 06:09:47;;;;;;;5.30;4.80;;;21.20;99.90;;;;;;5017797;28;20174;-57
2022/07/31 06:12:13;;;;;;;5.80;5.40;;;21.30;99.90;;;;;;5018888;28;20187;-59
2022/07/31 06:14:38;;;;;;;6.60;6.00;;;21.40;99.90;;;;;;5018553;28;20663;-58
2022/07/31 06:17:05;;;;;;;5.40;4.90;;;21.40;99.90;;;;;;5026795;28;20554;-58
2022/07/31 06:19:34;;;;;;;6.30;5.80;;;21.60;99.90;;;;;;5034292;28;20228;-58
2022/07/31 06:21:59;;;;;;;5.73;5.33;;;21.60;99.90;;;;;;5038193;28;20429;-58
2022/07/31 06:24:25;;;;;;;5.50;5.03;;;21.60;99.90;;;;;;5036670;28;20468;-59
2022/07/31 06:26:56;;;;;;;4.90;4.60;;;21.60;99.90;;;;;;5036671;28;20178;-57
2022/07/31 06:29:21;;;;;;;6.10;5.23;;;21.70;99.90;;;;;;5037531;28;20178;-59
2022/07/31 06:31:47;;;;;;;5.37;5.00;;;21.80;99.90;;;;;;5035458;28;20531;-59
2022/07/31 06:34:13;;;;;;;6.03;5.60;;;22.00;99.90;;;;;;5037913;28;20591;-61
2022/07/31 06:36:38;;;;;;;4.53;4.23;;;22.10;99.90;;;;;;5036625;28;20181;-59
2022/07/31 06:39:04;;;;;;;5.83;5.40;;;22.20;99.90;;;;;;5037158;28;20212;-56
2022/07/31 06:41:47;;;;;;;5.47;5.07;;;22.30;99.90;;;;;;5033296;28;20189;-57
2022/07/31 06:44:18;;;;;;;4.97;4.57;;;22.50;99.90;;;;;;5037917;28;20269;-59
2022/07/31 06:46:47;;;;;;;5.33;4.93;;;22.60;99.90;;;;;;5026977;28;20440;-58
2022/07/31 06:49:13;;;;;;;6.77;4.80;;;22.80;99.90;;;;;;5030569;28;20425;-56
2022/07/31 06:51:39;;;;;;;5.97;5.47;;;22.90;99.90;;;;;;5035116;28;20763;-58
2022/07/31 06:54:08;;;;;;;8.27;4.90;;;23.10;99.90;;;;;;5033655;28;20471;-57
2022/07/31 06:56:34;;;;;;;5.53;5.03;;;23.30;99.90;;;;;;5036105;28;20713;-53
2022/07/31 06:59:00;;;;;;;7.50;4.40;;;23.50;99.90;;;;;;5037229;28;20623;-57
2022/07/31 07:01:27;;;;;;;5.53;5.03;;;23.70;99.90;;;;;;5037987;28;20495;-58
2022/07/31 07:03:53;;;;;;;5.60;5.10;;;23.80;99.90;;;;;;5035263;28;20942;-56
2022/07/31 07:06:19;;;;;;;4.93;4.50;;;23.70;99.90;;;;;;5017942;28;20472;-53
2022/07/31 07:08:44;;;;;;;4.97;4.57;;;23.80;99.90;;;;;;5028510;28;20424;-58
2022/07/31 07:11:10;;;;;;;4.87;4.47;;;23.90;99.90;;;;;;5043196;28;20553;-56
2022/07/31 07:13:36;;;;;;;4.80;4.40;;;24.00;99.90;;;;;;5047138;28;20569;-59
2022/07/31 07:16:02;;;;;;;6.47;5.97;;;24.00;99.90;;;;;;5048190;28;20438;-56
2022/07/31 07:18:27;;;;;;;5.10;4.67;;;24.20;99.90;;;;;;5042915;28;20224;-58
2022/07/31 07:20:53;;;;;;;4.83;4.37;;;24.30;99.90;;;;;;5054587;28;20173;-58
2022/07/31 07:23:20;;;;;;;4.80;4.40;;;24.50;99.90;;;;;;5051451;28;20166;-59
2022/07/31 07:25:46;;;;;;;4.97;4.67;;;24.60;99.90;;;;;;5037138;28;20261;-57
2022/07/31 07:28:12;;;;;;;4.70;4.43;;;24.90;99.90;;;;;;5046784;28;20523;-61
2022/07/31 07:30:38;;;;;;;3.90;3.63;;;25.10;99.90;;;;;;5039154;28;20603;-60
2022/07/31 07:33:04;;;;;;;6.07;3.90;;;25.10;99.90;;;;;;5054552;28;20420;-58
2022/07/31 07:35:30;;;;;;;4.77;3.87;;;25.40;99.90;;;;;;5045283;28;20456;-56
2022/07/31 07:37:56;;;;;;;4.60;4.00;;;25.60;99.90;;;;;;5024867;28;20274;-58
2022/07/31 07:40:22;;;;;;;4.67;4.37;;;25.60;99.50;;;;;;5020029;28;20563;-60
2022/07/31 07:42:48;;;;;;;4.23;4.03;;;25.80;99.30;;;;;;5034053;28;20424;-58
2022/07/31 07:45:14;;;;;;;5.40;3.73;;;25.80;98.90;;;;;;5038142;28;20531;-56
2022/07/31 07:47:39;;;;;;;4.77;4.37;;;26.00;98.60;;;;;;5028852;28;20253;-59
2022/07/31 07:50:06;;;;;;;3.83;3.53;;;26.20;98.30;;;;;;5037232;28;20186;-59
2022/07/31 07:52:33;;;;;;;4.43;4.10;;;26.40;97.50;;;;;;5041987;28;20262;-56
2022/07/31 07:54:59;;;;;;;3.60;3.37;;;26.60;97.60;;;;;;5034210;28;20448;-58
2022/07/31 07:57:25;;;;;;;4.67;4.27;;;26.70;96.80;;;;;;5045805;28;20433;-56
2022/07/31 07:59:51;;;;;;;5.57;5.07;;;26.90;96.70;;;;;;5013771;28;20321;-59
2022/07/31 08:02:16;;;;;;;5.10;4.60;;;27.00;96.10;;;;;;4996548;28;20552;-60
2022/07/31 08:04:42;;;;;;;4.40;4.00;;;27.10;95.90;;;;;;5028014;28;21018;-58
2022/07/31 08:07:07;;;;;;;4.77;4.37;;;27.30;95.70;;;;;;5031144;28;20178;-58
2022/07/31 08:09:34;;;;;;;6.53;4.87;;;27.40;95.20;;;;;;5027404;28;20209;-59
2022/07/31 08:12:01;;;;;;;4.40;4.00;;;27.50;94.80;;;;;;5028521;28;20314;-58
2022/07/31 08:14:26;;;;;;;4.27;3.67;;;27.60;94.60;;;;;;5038658;28;20439;-57
2022/07/31 08:16:53;;;;;;;5.37;4.97;;;27.70;94.20;;;;;;5045651;28;20421;-66
2022/07/31 08:19:18;;;;;;;5.50;4.47;;;27.90;94.00;;;;;;5015435;28;20203;-66
2022/07/31 08:21:44;;;;;;;6.47;5.97;;;28.00;93.00;;;;;;5014902;28;20444;-68
2022/07/31 08:24:12;;;;;;;4.93;4.63;;;27.80;93.20;;;;;;5031631;28;20260;-68
2022/07/31 08:29:23;;;;;;;4.83;3.97;;;28.10;92.90;;;;;;5032314;28;20853;-67
2022/07/31 08:31:50;;;;;;;5.13;4.73;;;28.20;92.50;;;;;;5033335;28;20949;-67
2022/07/31 08:34:16;;;;;;;9.63;8.83;;;28.70;92.10;;;;;;5025119;28;20469;-63
2022/07/31 08:36:42;;;;;;;4.87;4.17;;;29.10;91.10;;;;;;5013637;28;20426;-62
2022/07/31 08:39:08;;;;;;;4.83;4.43;;;29.30;89.70;;;;;;5014558;28;20965;-62
2022/07/31 08:41:37;;;;;;;4.37;4.07;;;29.00;87.40;;;;;;5021338;28;20532;-61
2022/07/31 08:44:04;;;;;;;4.60;4.20;;;28.90;85.60;;;;;;5029137;28;20655;-61
2022/07/31 08:46:32;;;;;;;4.70;3.60;;;29.60;83.00;;;;;;5021847;28;20567;-61
2022/07/31 08:48:59;;;;;;;3.57;3.37;;;30.20;80.30;;;;;;5024228;28;20444;-61
2022/07/31 08:51:26;;;;;;;3.20;3.00;;;30.90;78.10;;;;;;5021615;28;20445;-61
2022/07/31 08:53:52;;;;;;;4.03;3.27;;;30.90;74.10;;;;;;5021942;28;20528;-61
2022/07/31 08:56:19;;;;;;;3.40;3.20;;;31.00;73.00;;;;;;5033082;28;20443;-62
2022/07/31 08:58:45;;;;;;;3.50;3.30;;;31.00;70.90;;;;;;5038198;28;20448;-62
2022/07/31 09:01:12;;;;;;;3.43;3.23;;;31.00;70.30;;;;;;5050530;28;20450;-62
2022/07/31 09:03:37;;;;;;;2.90;2.70;;;31.20;67.60;;;;;;5046452;28;20441;-62
2022/07/31 09:06:04;;;;;;;3.13;2.93;;;31.20;66.20;;;;;;5021884;28;20441;-61
2022/07/31 09:08:35;;;;;;;3.53;2.80;;;31.20;64.80;;;;;;5024580;28;20236;-61
2022/07/31 09:11:13;;;;;;;3.07;2.83;;;31.40;65.20;;;;;;5033904;28;20417;-61
2022/07/31 09:13:50;;;;;;;3.43;3.23;;;31.60;62.80;;;;;;5026014;28;20525;-61
2022/07/31 09:16:16;;;;;;;3.10;2.90;;;31.40;61.50;;;;;;5038790;28;20848;-61
2022/07/31 09:18:42;;;;;;;2.47;2.27;;;31.80;59.30;;;;;;5015145;28;20466;-61
2022/07/31 09:21:08;;;;;;;4.17;2.67;;;32.10;58.80;;;;;;5027194;28;20439;-61
2022/07/31 09:23:46;;;;;;;3.13;2.70;;;32.10;57.90;;;;;;5021738;28;20251;-61
2022/07/31 09:26:11;;;;;;;3.10;2.80;;;32.20;57.30;;;;;;5012639;28;20433;-61
2022/07/31 09:28:44;;;;;;;2.60;2.50;;;31.90;57.50;;;;;;5031572;28;20413;-59
2022/07/31 09:31:12;;;;;;;3.40;3.20;;;31.60;58.00;;;;;;5027012;28;20220;-61
2022/07/31 09:33:41;;;;;;;3.43;3.20;;;31.30;59.50;;;;;;5032482;28;20449;-61
2022/07/31 09:36:06;;;;;;;3.83;3.47;;;31.20;61.00;;;;;;5017763;28;20536;-62
2022/07/31 09:38:42;;;;;;;3.90;3.70;;;31.40;60.70;;;;;;5011747;28;20834;-58
2022/07/31 09:41:14;;;;;;;3.37;3.17;;;31.50;61.20;;;;;;5023899;28;20182;-62
2022/07/31 09:43:40;;;;;;;4.73;3.20;;;31.60;60.30;;;;;;5023270;28;20461;-63
2022/07/31 09:46:07;;;;;;;2.87;2.67;;;32.30;59.40;;;;;;5032000;28;20428;-61
2022/07/31 09:48:34;;;;;;;3.10;2.60;;;32.30;58.00;;;;;;5031167;28;20475;-63
2022/07/31 09:51:03;;;;;;;2.90;2.30;;;32.80;56.90;;;;;;5031984;28;20840;-62
2022/07/31 09:53:46;;;;;;;3.80;2.33;;;33.80;56.20;;;;;;5031945;28;20425;-62
2022/07/31 09:56:13;;;;;;;2.63;2.53;;;34.70;54.60;;;;;;5031973;28;20425;-62
2022/07/31 09:58:40;;;;;;;3.33;2.70;;;34.30;54.40;;;;;;5017065;28;20805;-62
2022/07/31 10:01:08;;;;;;;2.87;2.67;;;34.20;53.50;;;;;;5033233;28;20904;-63
2022/07/31 10:03:35;;;;;;;2.97;2.67;;;34.30;53.50;;;;;;5036945;28;20514;-62
2022/07/31 10:06:03;;;;;;;3.10;2.90;;;34.10;53.30;;;;;;5036678;28;20467;-62
2022/07/31 10:08:33;;;;;;;4.33;2.43;;;33.90;53.20;;;;;;5040217;28;20839;-61
2022/07/31 10:10:59;;;;;;;3.73;2.80;;;34.30;53.00;;;;;;5037416;28;20945;-62
2022/07/31 10:13:24;;;;;;;2.50;2.30;;;33.90;51.70;;;;;;5050761;28;20467;-62
2022/07/31 10:15:53;;;;;;;2.87;2.67;;;33.80;52.20;;;;;;5027754;28;20516;-62
2022/07/31 10:18:20;;;;;;;2.70;2.50;;;35.40;51.40;;;;;;5031077;28;20193;-60
2022/07/31 10:20:53;;;;;;;2.63;2.50;;;36.00;50.30;;;;;;5031788;28;20468;-59
2022/07/31 10:23:26;;;;;;;2.90;2.63;;;36.40;49.10;;;;;;5031827;28;20417;-60
2022/07/31 10:25:55;;;;;;;4.07;2.50;;;35.70;48.60;;;;;;5031864;28;20416;-60
2022/07/31 10:28:21;;;;;;;5.30;2.63;;;34.90;49.70;;;;;;5019673;28;20842;-60
2022/07/31 10:30:48;;;;;;;3.43;2.27;;;34.00;50.10;;;;;;5011955;28;20452;-60
2022/07/31 10:33:13;;;;;;;3.20;2.87;;;33.50;50.40;;;;;;5030539;28;20433;-60
2022/07/31 10:35:51;;;;;;;2.93;2.73;;;33.30;51.00;;;;;;5031482;28;20809;-60
2022/07/31 10:38:35;;;;;;;2.30;2.20;;;33.00;51.50;;;;;;5030935;28;20260;-61
2022/07/31 10:41:30;;;;;;;2.80;2.53;;;35.00;49.50;;;;;;5018936;28;20433;-61
2022/07/31 10:43:59;;;;;;;4.13;2.80;;;34.30;49.20;;;;;;5033586;28;20441;-61
2022/07/31 10:46:34;;;;;;;2.77;2.57;;;33.20;49.90;;;;;;5042206;28;20417;-60
2022/07/31 10:48:59;;;;;;;2.87;2.67;;;32.30;50.70;;;;;;5038080;28;20427;-60
2022/07/31 10:51:25;;;;;;;2.40;2.30;;;31.90;51.40;;;;;;5038865;28;20949;-60
2022/07/31 10:53:59;;;;;;;3.13;2.90;;;32.10;51.40;;;;;;5045943;28;20198;-60
2022/07/31 10:56:26;;;;;;;2.63;2.53;;;31.60;51.60;;;;;;5046029;28;20526;-59
2022/07/31 10:58:55;;;;;;;2.70;2.50;;;31.40;52.40;;;;;;5043055;28;20987;-60
2022/07/31 11:01:21;;;;;;;2.60;2.40;;;31.40;52.60;;;;;;5043889;28;20766;-60
2022/07/31 11:03:51;;;;;;;3.57;2.93;;;31.30;52.50;;;;;;5031558;28;20456;-60
2022/07/31 11:06:17;;;;;;;3.50;3.17;;;31.00;53.10;;;;;;5040940;28;20438;-60
2022/07/31 11:08:44;;;;;;;2.90;2.60;;;30.80;53.50;;;;;;5037719;28;20428;-60
2022/07/31 11:11:10;;;;;;;3.17;2.97;;;30.50;53.70;;;;;;5038886;28;20268;-60
2022/07/31 11:13:46;;;;;;;6.40;3.63;;;30.40;54.10;;;;;;5035466;28;20475;-60
2022/07/31 11:16:11;;;;;;;2.90;2.70;;;30.20;54.80;;;;;;5039402;28;20432;-60
2022/07/31 11:18:37;;;;;;;3.07;2.77;;;30.20;55.10;;;;;;5036745;28;20432;-60
2022/07/31 11:21:06;;;;;;;2.80;2.60;;;30.00;54.30;;;;;;5042969;28;20257;-60
2022/07/31 11:23:33;;;;;;;2.83;2.63;;;30.10;54.50;;;;;;5027013;28;20177;-60
2022/07/31 11:26:01;;;;;;;3.83;3.03;;;30.50;54.20;;;;;;5045413;28;20518;-61
2022/07/31 11:28:27;;;;;;;3.10;2.90;;;30.80;53.90;;;;;;5024590;28;20539;-62
2022/07/31 11:30:53;;;;;;;3.20;2.90;;;31.40;53.50;;;;;;5035396;28;21011;-62
2022/07/31 11:33:32;;;;;;;3.70;3.43;;;32.90;54.10;;;;;;5036310;28;20182;-62
2022/07/31 11:36:11;;;;;;;3.83;3.37;;;33.10;53.60;;;;;;5043910;28;20539;-61
2022/07/31 11:38:43;;;;;;;3.73;3.43;;;32.80;53.70;;;;;;5029848;28;20442;-63
2022/07/31 11:41:09;;;;;;;3.20;3.00;;;34.90;52.80;;;;;;5038629;28;20443;-62
2022/07/31 11:43:37;;;;;;;3.17;2.97;;;37.00;49.50;;;;;;5026928;28;20440;-62
2022/07/31 11:46:04;;;;;;;3.60;3.30;;;37.10;47.90;;;;;;5042357;28;20982;-62
2022/07/31 11:48:31;;;;;;;3.73;2.63;;;36.40;48.10;;;;;;5025357;28;20825;-62
2022/07/31 11:50:58;;;;;;;3.40;3.10;;;35.40;48.20;;;;;;5036170;28;20435;-61
2022/07/31 11:53:24;;;;;;;3.37;3.07;;;34.60;48.80;;;;;;5041705;28;20428;-61
2022/07/31 11:55:55;;;;;;;3.30;2.63;;;33.90;49.60;;;;;;5037411;28;20823;-62
2022/07/31 11:58:23;;;;;;;3.50;3.20;;;33.00;50.50;;;;;;5008708;28;20439;-61
2022/07/31 12:00:51;;;;;;;3.30;3.00;;;34.20;49.40;;;;;;5034837;28;20470;-61
2022/07/31 12:03:18;;;;;;;3.00;2.80;;;37.20;47.10;;;;;;5052116;28;21001;-61
2022/07/31 12:05:49;;;;;;;2.83;2.60;;;39.10;42.60;;;;;;5043669;28;20429;-61
2022/07/31 12:08:15;;;;;;;3.30;3.00;;;39.80;41.60;;;;;;5033044;28;20413;-61
2022/07/31 12:10:41;;;;;;;3.17;2.97;;;39.80;40.80;;;;;;5033671;28;20433;-60
2022/07/31 12:13:15;;;;;;;2.87;2.67;;;38.60;40.60;;;;;;5031870;28;20420;-60
2022/07/31 12:15:52;;;;;;;3.20;2.90;;;37.80;41.50;;;;;;5013881;28;20477;-61
2022/07/31 12:18:18;;;;;;;3.77;3.03;;;38.60;41.00;;;;;;5025420;28;20444;-61
2022/07/31 12:20:54;;;;;;;2.80;2.60;;;38.30;40.60;;;;;;5033388;28;20542;-60
2022/07/31 12:23:20;;;;;;;3.07;2.87;;;37.60;40.60;;;;;;5033576;28;20166;-60
2022/07/31 12:25:46;;;;;;;2.63;2.43;;;35.90;42.40;;;;;;5033320;28;20499;-60
2022/07/31 12:28:15;;;;;;;2.40;2.20;;;36.00;42.40;;;;;;5033083;28;20174;-61
2022/07/31 12:30:41;;;;;;;3.47;2.67;;;36.60;42.70;;;;;;5032355;28;20182;-61
2022/07/31 12:33:08;;;;;;;3.40;2.70;;;37.30;40.90;;;;;;5035813;28;20436;-61
2022/07/31 12:35:36;;;;;;;3.13;2.83;;;37.20;40.70;;;;;;5038714;28;20480;-60
2022/07/31 12:38:01;;;;;;;2.57;2.47;;;38.50;40.50;;;;;;5040505;28;20440;-61
2022/07/31 12:40:27;;;;;;;4.03;3.30;;;40.10;38.90;;;;;;5041591;28;20460;-61
2022/07/31 12:42:53;;;;;;;2.70;2.60;;;38.80;38.50;;;;;;5041028;28;20209;-61
2022/07/31 12:45:29;;;;;;;3.37;3.17;;;39.50;38.00;;;;;;5042631;28;20567;-61
2022/07/31 12:47:55;;;;;;;3.00;2.80;;;40.20;38.20;;;;;;5041073;28;20483;-60
2022/07/31 12:50:23;;;;;;;2.70;2.50;;;38.50;38.50;;;;;;5025978;28;20441;-61
2022/07/31 12:52:48;;;;;;;3.37;3.17;;;37.70;39.20;;;;;;5040251;28;20182;-60
2022/07/31 12:55:15;;;;;;;2.47;2.37;;;36.40;40.00;;;;;;5042294;28;20460;-62